Terminal Aerodrome Forecast
Issued by NWS Wakefield, VA

Home | Current Version | Previous Version | Text Only | Print | Product List | Glossary On
Versions: 1 2 3 4 5 6 7 8 9 10 11 12 13 14 15 16 17 18 19
453
FTUS41 KAKQ 230540
TAFECG
TAF
KECG 230540Z 2306/2406 21010KT P6SM BKN120
     FM231500 24010KT P6SM BKN100
     FM231800 23009KT 6SM -SHRA BKN040 BKN080
     FM240100 34006KT P6SM SCT060=

USA.gov is the U.S. government's official web portal to all federal, state and local government web resources and services.